createdAt,value
2022-09-22T00:01:35.055Z,6.80
2022-09-22T00:04:06.104Z,6.80
2022-09-22T00:06:39.438Z,6.80
2022-09-22T00:09:10.547Z,6.70
2022-09-22T00:11:42.576Z,6.60
2022-09-22T00:14:16.331Z,6.60
2022-09-22T00:16:50.938Z,6.60
2022-09-22T00:19:23.997Z,6.50
2022-09-22T00:21:51.932Z,6.50
2022-09-22T00:24:22.736Z,6.50
2022-09-22T00:26:51.320Z,6.40
2022-09-22T00:29:19.013Z,6.40
2022-09-22T00:31:46.562Z,6.40
2022-09-22T00:34:17.213Z,6.30
2022-09-22T00:36:45.306Z,6.30
2022-09-22T00:39:13.888Z,6.20
2022-09-22T00:41:44.933Z,6.30
2022-09-22T00:44:21.141Z,6.20
2022-09-22T00:46:55.001Z,6.20
2022-09-22T00:49:40.120Z,6.20
2022-09-22T00:52:08.469Z,6.20
2022-09-22T00:54:36.098Z,6.10
2022-09-22T00:57:09.959Z,6.10
2022-09-22T00:59:38.043Z,6.10
2022-09-22T01:02:05.585Z,6.10
2022-09-22T01:04:32.935Z,6.00
2022-09-22T01:07:02.135Z,6.00
2022-09-22T01:09:33.185Z,6.00
2022-09-22T01:12:02.902Z,6.00
2022-09-22T01:15:03.756Z,6.00
2022-09-22T01:17:56.701Z,6.00
2022-09-22T01:20:30.282Z,5.90
2022-09-22T01:23:00.587Z,5.90
2022-09-22T01:25:36.792Z,5.90
2022-09-22T01:28:22.561Z,5.90
2022-09-22T01:31:01.938Z,5.90
2022-09-22T01:33:48.358Z,5.80
2022-09-22T01:36:21.364Z,5.80
2022-09-22T01:39:19.321Z,5.80
2022-09-22T01:42:13.617Z,5.80
2022-09-22T01:44:49.913Z,5.80
2022-09-22T01:47:31.982Z,5.80
2022-09-22T01:50:05.402Z,5.80
2022-09-22T01:52:35.191Z,5.80
2022-09-22T01:55:27.942Z,5.70
2022-09-22T01:58:02.910Z,5.70
2022-09-22T02:00:30.648Z,5.60
2022-09-22T02:03:11.919Z,5.60
2022-09-22T02:05:48.112Z,5.60
2022-09-22T02:08:41.659Z,5.70
2022-09-22T02:11:13.942Z,5.60
2022-09-22T02:13:42.800Z,5.60
2022-09-22T02:16:14.819Z,5.60
2022-09-22T02:19:02.832Z,5.60
2022-09-22T02:21:40.642Z,5.60
2022-09-22T02:24:25.582Z,5.50
2022-09-22T02:26:53.750Z,5.60
2022-09-22T02:29:22.797Z,5.50
2022-09-22T02:31:52.076Z,5.50
2022-09-22T02:34:19.424Z,5.50
2022-09-22T02:37:01.700Z,5.50
2022-09-22T02:40:04.416Z,5.50
2022-09-22T02:42:34.225Z,5.50
2022-09-22T02:45:15.348Z,5.40
2022-09-22T02:47:57.415Z,5.40
2022-09-22T02:50:27.248Z,5.30
2022-09-22T02:53:01.420Z,5.30
2022-09-22T02:55:28.813Z,5.30
2022-09-22T02:57:56.569Z,5.20
2022-09-22T03:00:23.983Z,5.20
2022-09-22T03:02:51.186Z,5.10
2022-09-22T03:05:18.524Z,5.10
2022-09-22T03:07:45.682Z,5.10
2022-09-22T03:10:12.932Z,5.00
2022-09-22T03:13:02.442Z,5.00
2022-09-22T03:15:30.217Z,4.90
2022-09-22T03:17:57.598Z,4.90
2022-09-22T03:20:24.924Z,4.90
2022-09-22T03:22:52.375Z,4.90
2022-09-22T03:25:19.628Z,4.90
2022-09-22T03:27:48.013Z,4.90
2022-09-22T03:30:15.221Z,4.90
2022-09-22T03:32:42.530Z,4.80
2022-09-22T03:35:10.074Z,4.80
2022-09-22T03:37:37.361Z,4.80
2022-09-22T03:40:05.410Z,4.80
2022-09-22T03:42:35.194Z,4.80
2022-09-22T03:45:04.437Z,4.80
2022-09-22T03:47:32.265Z,4.80
2022-09-22T03:49:59.496Z,4.80
2022-09-22T03:52:27.503Z,4.80
2022-09-22T03:54:54.755Z,4.80
2022-09-22T03:57:22.136Z,4.80
2022-09-22T03:59:49.381Z,4.80
2022-09-22T04:02:17.121Z,4.80
2022-09-22T04:04:44.609Z,4.80
2022-09-22T04:07:12.014Z,4.80
2022-09-22T04:09:39.997Z,4.80
2022-09-22T04:12:07.539Z,4.80
2022-09-22T04:14:34.763Z,4.80
2022-09-22T04:17:02.199Z,4.70
2022-09-22T04:19:29.515Z,4.70
2022-09-22T04:21:57.492Z,4.70
2022-09-22T04:24:24.943Z,4.60
2022-09-22T04:27:15.559Z,4.70
2022-09-22T04:29:39.947Z,4.70
2022-09-22T04:32:07.275Z,4.60
2022-09-22T04:34:34.686Z,4.60
2022-09-22T04:37:02.060Z,4.60
2022-09-22T04:39:29.317Z,4.60
2022-09-22T04:41:56.624Z,4.50
2022-09-22T04:44:23.909Z,4.50
2022-09-22T04:46:51.287Z,4.50
2022-09-22T04:49:19.114Z,4.50
2022-09-22T04:51:46.434Z,4.50
2022-09-22T04:54:16.961Z,4.50
2022-09-22T04:56:44.481Z,4.50
2022-09-22T04:59:12.057Z,4.50
2022-09-22T05:01:39.582Z,4.50
2022-09-22T05:04:06.846Z,4.50
2022-09-22T05:06:34.118Z,4.40
2022-09-22T05:09:02.920Z,4.50
2022-09-22T05:11:30.361Z,4.50
2022-09-22T05:13:58.787Z,4.50
2022-09-22T05:16:26.778Z,4.50
2022-09-22T05:18:54.075Z,4.50
2022-09-22T05:21:21.447Z,4.60
2022-09-22T05:23:48.687Z,4.60
2022-09-22T05:26:16.176Z,4.60
2022-09-22T05:28:43.409Z,4.60
2022-09-22T05:31:10.710Z,4.60
2022-09-22T05:33:38.098Z,4.60
2022-09-22T05:36:05.599Z,4.70
2022-09-22T05:38:32.848Z,4.70
2022-09-22T05:41:00.225Z,4.70
2022-09-22T05:43:27.526Z,4.80
2022-09-22T05:45:54.839Z,4.90
2022-09-22T05:48:22.118Z,5.00
2022-09-22T05:50:49.448Z,5.00
2022-09-22T05:53:17.234Z,5.10
2022-09-22T05:55:44.545Z,5.10
2022-09-22T05:58:12.905Z,5.20
2022-09-22T06:00:42.082Z,5.30
2022-09-22T06:03:09.583Z,5.40
2022-09-22T06:05:39.514Z,5.40
2022-09-22T06:08:07.255Z,5.40
2022-09-22T06:10:36.434Z,5.50
2022-09-22T06:13:05.829Z,5.50
2022-09-22T06:15:36.573Z,5.60
2022-09-22T06:18:07.457Z,5.60
2022-09-22T06:20:35.942Z,5.70
2022-09-22T06:23:03.704Z,5.70
2022-09-22T06:25:31.382Z,5.80
2022-09-22T06:28:05.081Z,5.80
2022-09-22T06:30:34.030Z,5.90
2022-09-22T06:33:01.484Z,6.00
2022-09-22T06:35:36.786Z,6.10
2022-09-22T06:38:06.521Z,6.20
2022-09-22T06:40:37.683Z,6.30
2022-09-22T06:43:13.015Z,6.30
2022-09-22T06:45:40.852Z,6.40
2022-09-22T06:48:10.649Z,6.40
2022-09-22T06:50:38.909Z,6.50
2022-09-22T06:53:07.929Z,6.30
2022-09-22T06:55:39.961Z,6.40
2022-09-22T06:58:07.249Z,6.40
2022-09-22T07:00:34.549Z,6.50
2022-09-22T07:03:08.875Z,6.50
2022-09-22T07:05:39.697Z,6.70
2022-09-22T07:08:09.087Z,6.90
2022-09-22T07:10:39.126Z,7.00
2022-09-22T07:13:06.740Z,7.00
2022-09-22T07:15:35.701Z,7.10
2022-09-22T07:18:04.545Z,7.20
2022-09-22T07:20:33.757Z,7.30
2022-09-22T07:23:01.134Z,7.40
2022-09-22T07:25:29.488Z,7.50
2022-09-22T07:28:05.223Z,7.60
2022-09-22T07:30:34.317Z,7.70
2022-09-22T07:33:01.900Z,7.70
2022-09-22T07:35:29.226Z,7.70
2022-09-22T07:37:57.116Z,7.70
2022-09-22T07:40:24.439Z,7.80
2022-09-22T07:42:51.832Z,8.00
2022-09-22T07:45:19.101Z,8.10
2022-09-22T07:48:04.777Z,8.20
2022-09-22T07:50:32.059Z,8.10
2022-09-22T07:52:59.445Z,8.20
2022-09-22T07:55:26.776Z,8.40
2022-09-22T07:57:58.419Z,8.60
2022-09-22T08:00:27.869Z,8.80
2022-09-22T08:02:57.785Z,9.00
2022-09-22T08:05:26.776Z,9.10
2022-09-22T08:07:58.600Z,9.30
2022-09-22T08:10:26.610Z,9.50
2022-09-22T08:12:55.223Z,9.60
2022-09-22T08:15:26.973Z,9.80
2022-09-22T08:17:58.434Z,9.90
2022-09-22T08:20:29.184Z,10.10
2022-09-22T08:23:05.830Z,10.10
2022-09-22T08:25:33.115Z,10.20
2022-09-22T08:28:03.474Z,10.40
2022-09-22T08:30:30.917Z,10.50
2022-09-22T08:33:00.807Z,10.60
2022-09-22T08:35:28.072Z,10.80
2022-09-22T08:37:55.368Z,10.90
2022-09-22T08:40:23.910Z,11.00
2022-09-22T08:42:54.614Z,11.00
2022-09-22T08:45:33.290Z,11.10
2022-09-22T08:48:25.734Z,11.10
2022-09-22T08:51:16.987Z,11.30
2022-09-22T08:53:49.802Z,11.50
2022-09-22T08:56:37.070Z,11.70
2022-09-22T08:59:16.651Z,11.70
2022-09-22T09:02:08.759Z,11.80
2022-09-22T09:04:50.636Z,11.90
2022-09-22T09:07:27.173Z,12.10
2022-09-22T09:10:22.469Z,12.00
2022-09-22T09:12:59.243Z,12.10
2022-09-22T09:15:43.829Z,12.10
2022-09-22T09:18:16.345Z,12.30
2022-09-22T09:20:46.845Z,12.50
2022-09-22T09:26:23.350Z,12.80
2022-09-22T09:29:04.299Z,12.90
2022-09-22T09:31:42.179Z,13.10
2022-09-22T09:34:14.896Z,13.20
2022-09-22T09:36:45.788Z,13.30
2022-09-22T09:39:33.702Z,13.30
2022-09-22T09:42:06.902Z,13.40
2022-09-22T09:44:40.165Z,13.70
2022-09-22T09:47:36.718Z,13.80
2022-09-22T09:50:04.693Z,13.70
2022-09-22T09:52:33.686Z,14.00
2022-09-22T09:55:01.576Z,14.20
2022-09-22T09:57:30.139Z,14.20
2022-09-22T10:00:32.071Z,14.40
2022-09-22T10:03:24.795Z,14.60
2022-09-22T10:06:08.346Z,14.90
2022-09-22T10:08:45.144Z,15.00
2022-09-22T10:11:15.181Z,15.10
2022-09-22T10:13:44.117Z,15.00
2022-09-22T10:16:30.923Z,15.00
2022-09-22T10:19:21.921Z,15.20
2022-09-22T10:21:49.654Z,15.30
2022-09-22T10:24:29.995Z,15.50
2022-09-22T10:26:57.658Z,15.70
2022-09-22T10:29:25.884Z,16.00
2022-09-22T10:32:13.817Z,16.30
2022-09-22T10:34:51.899Z,16.70
2022-09-22T10:37:27.097Z,16.80
2022-09-22T10:40:01.966Z,16.90
2022-09-22T10:42:48.276Z,17.20
2022-09-22T10:45:19.526Z,17.40
2022-09-22T10:48:00.409Z,17.90
2022-09-22T10:51:10.045Z,18.10
2022-09-22T10:53:55.590Z,17.70
2022-09-22T10:56:39.894Z,18.20
2022-09-22T10:59:13.086Z,18.80
2022-09-22T11:01:43.469Z,19.30
2022-09-22T11:04:52.257Z,19.60
2022-09-22T11:07:53.376Z,20.20
2022-09-22T11:10:41.965Z,20.70
2022-09-22T11:13:12.264Z,21.00
2022-09-22T11:15:54.394Z,21.30
2022-09-22T11:18:49.449Z,21.60
2022-09-22T11:21:50.947Z,21.60
2022-09-22T11:24:38.325Z,21.70
2022-09-22T11:27:15.452Z,22.30
2022-09-22T11:29:57.945Z,22.20
2022-09-22T11:32:34.328Z,21.50
2022-09-22T11:35:28.128Z,21.90
2022-09-22T11:38:27.912Z,22.30
2022-09-22T11:41:26.019Z,22.50
2022-09-22T11:43:59.101Z,22.90
2022-09-22T11:47:01.171Z,23.00
2022-09-22T11:49:49.572Z,23.20
2022-09-22T11:52:27.754Z,23.60
2022-09-22T11:55:06.725Z,23.30
2022-09-22T11:57:38.248Z,22.40
2022-09-22T12:00:17.450Z,21.90
2022-09-22T12:03:01.833Z,21.90
2022-09-22T12:05:42.206Z,21.60
2022-09-22T12:08:17.242Z,20.90
2022-09-22T12:10:45.689Z,21.30
2022-09-22T12:13:31.202Z,21.50
2022-09-22T12:16:25.242Z,22.20
2022-09-22T12:19:21.916Z,22.90
2022-09-22T12:22:05.219Z,23.70
2022-09-22T12:24:33.374Z,24.40
2022-09-22T12:27:11.522Z,24.70
2022-09-22T12:29:39.056Z,24.60
2022-09-22T12:32:06.579Z,24.80
2022-09-22T12:34:41.631Z,25.30
2022-09-22T12:37:31.210Z,25.50
2022-09-22T12:40:23.686Z,25.80
2022-09-22T12:42:53.692Z,25.60
2022-09-22T12:45:37.292Z,26.30
2022-09-22T12:48:19.053Z,27.10
2022-09-22T12:50:46.510Z,28.00
2022-09-22T12:53:22.903Z,29.10
2022-09-22T12:55:51.545Z,29.20
2022-09-22T12:58:22.335Z,30.80
2022-09-22T13:00:54.654Z,32.20
2022-09-22T13:03:24.970Z,33.20
2022-09-22T13:05:53.416Z,33.70
2022-09-22T13:08:23.617Z,33.90
2022-09-22T13:10:54.555Z,35.20
2022-09-22T13:13:31.124Z,34.90
2022-09-22T13:16:01.809Z,35.20
2022-09-22T13:18:34.912Z,35.50
2022-09-22T13:21:26.082Z,36.40
2022-09-22T13:23:59.123Z,37.20
2022-09-22T13:26:38.409Z,37.30
2022-09-22T13:29:12.155Z,37.70
2022-09-22T13:31:52.987Z,37.40
2022-09-22T13:34:32.415Z,37.70
2022-09-22T13:37:13.676Z,38.30
2022-09-22T13:39:47.885Z,38.20
2022-09-22T13:42:25.015Z,37.20
2022-09-22T13:45:13.766Z,37.60
2022-09-22T13:47:43.877Z,36.70
2022-09-22T13:50:21.664Z,33.70
2022-09-22T13:52:54.117Z,32.90
2022-09-22T13:55:25.980Z,33.30
2022-09-22T13:57:56.488Z,34.50
2022-09-22T14:00:31.456Z,34.90
2022-09-22T14:03:01.890Z,35.70
2022-09-22T14:05:41.343Z,36.40
2022-09-22T14:08:33.987Z,36.30
2022-09-22T14:11:02.280Z,37.50
2022-09-22T14:13:43.208Z,36.90
2022-09-22T14:16:33.858Z,37.40
2022-09-22T14:19:34.196Z,37.10
2022-09-22T14:22:04.342Z,37.30
2022-09-22T14:24:33.943Z,36.80
2022-09-22T14:27:04.503Z,37.50
2022-09-22T14:29:34.647Z,37.50
2022-09-22T14:32:13.238Z,37.70
2022-09-22T14:34:45.740Z,38.00
2022-09-22T14:37:24.931Z,38.30
2022-09-22T14:39:54.231Z,37.80
2022-09-22T14:42:28.471Z,38.20
2022-09-22T14:45:18.559Z,38.20
2022-09-22T14:47:45.924Z,38.20
2022-09-22T14:50:39.861Z,37.20
2022-09-22T14:53:21.955Z,37.60
2022-09-22T14:55:52.794Z,38.20
2022-09-22T14:58:26.023Z,38.50
2022-09-22T15:01:22.611Z,37.60
2022-09-22T15:04:08.233Z,37.90
2022-09-22T15:06:37.391Z,38.00
2022-09-22T15:09:06.273Z,37.00
2022-09-22T15:11:48.945Z,34.50
2022-09-22T15:14:43.986Z,32.30
2022-09-22T15:17:55.791Z,30.70
2022-09-22T15:21:01.280Z,30.70
2022-09-22T15:23:45.469Z,30.90
2022-09-22T15:26:25.585Z,29.20
2022-09-22T15:28:55.086Z,29.70
2022-09-22T15:31:26.930Z,30.90
2022-09-22T15:34:00.469Z,31.70
2022-09-22T15:36:33.065Z,32.70
2022-09-22T15:39:13.386Z,33.30
2022-09-22T15:41:41.994Z,33.70
2022-09-22T15:44:09.493Z,33.50
2022-09-22T15:46:38.404Z,33.90
2022-09-22T15:49:14.556Z,34.20
2022-09-22T15:51:41.857Z,34.30
2022-09-22T15:54:20.266Z,34.40
2022-09-22T15:56:51.102Z,34.40
2022-09-22T15:59:21.866Z,34.40
2022-09-22T16:01:50.163Z,34.40
2022-09-22T16:04:18.013Z,34.20
2022-09-22T16:06:56.609Z,33.50
2022-09-22T16:09:23.806Z,33.60
2022-09-22T16:11:51.234Z,33.40
2022-09-22T16:14:18.760Z,33.20
2022-09-22T16:16:46.024Z,33.10
2022-09-22T16:19:13.399Z,32.80
2022-09-22T16:21:49.064Z,32.70
2022-09-22T16:24:16.402Z,32.30
2022-09-22T16:26:43.631Z,32.20
2022-09-22T16:29:11.496Z,31.60
2022-09-22T16:31:39.498Z,31.60
2022-09-22T16:34:07.635Z,31.40
2022-09-22T16:36:36.592Z,31.30
2022-09-22T16:39:04.544Z,31.10
2022-09-22T16:41:33.387Z,30.40
2022-09-22T16:44:01.817Z,29.60
2022-09-22T16:46:30.971Z,28.90
2022-09-22T16:49:01.025Z,28.30
2022-09-22T16:51:29.061Z,27.90
2022-09-22T16:53:56.675Z,27.50
2022-09-22T16:56:29.457Z,27.10
2022-09-22T16:58:57.533Z,26.60
2022-09-22T17:01:24.953Z,25.80
2022-09-22T17:03:52.680Z,25.10
2022-09-22T17:06:25.414Z,24.20
2022-09-22T17:08:54.394Z,23.60
2022-09-22T17:11:25.489Z,22.70
2022-09-22T17:13:52.933Z,21.80
2022-09-22T17:16:30.231Z,20.90
2022-09-22T17:19:00.005Z,19.90
2022-09-22T17:21:30.184Z,19.00
2022-09-22T17:24:02.656Z,18.40
2022-09-22T17:26:32.704Z,17.70
2022-09-22T17:29:00.317Z,17.20
2022-09-22T17:31:31.253Z,16.70
2022-09-22T17:33:59.922Z,16.30
2022-09-22T17:36:28.991Z,15.90
2022-09-22T17:38:58.199Z,15.60
2022-09-22T17:41:28.552Z,15.30
2022-09-22T17:43:57.469Z,15.00
2022-09-22T17:46:26.049Z,14.80
2022-09-22T17:49:11.938Z,14.60
2022-09-22T17:51:58.992Z,14.40
2022-09-22T17:54:51.364Z,14.20
2022-09-22T17:57:20.287Z,14.00
2022-09-22T17:59:47.689Z,13.80
2022-09-22T18:02:17.154Z,13.70
2022-09-22T18:04:45.493Z,13.60
2022-09-22T18:07:18.313Z,13.40
2022-09-22T18:09:47.545Z,13.30
2022-09-22T18:12:21.655Z,13.20
2022-09-22T18:14:50.460Z,13.10
2022-09-22T18:17:20.575Z,13.10
2022-09-22T18:19:47.971Z,12.90
2022-09-22T18:22:21.121Z,12.90
2022-09-22T18:24:49.970Z,12.80
2022-09-22T18:27:19.678Z,12.70
2022-09-22T18:29:50.052Z,12.60
2022-09-22T18:32:20.163Z,12.60
2022-09-22T18:34:48.118Z,12.50
2022-09-22T18:37:15.883Z,12.40
2022-09-22T18:39:45.690Z,12.30
2022-09-22T18:42:14.108Z,12.30
2022-09-22T18:44:41.837Z,12.20
2022-09-22T18:47:14.669Z,12.10
2022-09-22T18:49:43.145Z,12.00
2022-09-22T18:52:10.386Z,11.90
2022-09-22T18:54:40.115Z,11.80
2022-09-22T18:57:07.466Z,11.70
2022-09-22T18:59:34.753Z,11.60
2022-09-22T19:02:02.030Z,11.60
2022-09-22T19:04:29.312Z,11.50
2022-09-22T19:07:15.873Z,11.50
2022-09-22T19:09:45.047Z,11.40
2022-09-22T19:12:12.705Z,11.30
2022-09-22T19:14:41.984Z,11.20
2022-09-22T19:17:11.513Z,11.20
2022-09-22T19:19:42.378Z,11.10
2022-09-22T19:22:13.171Z,11.10
2022-09-22T19:24:46.295Z,11.00
2022-09-22T19:27:16.213Z,11.00
2022-09-22T19:29:43.381Z,10.90
2022-09-22T19:32:10.712Z,10.90
2022-09-22T19:34:38.155Z,10.90
2022-09-22T19:37:07.062Z,10.80
2022-09-22T19:39:36.794Z,10.80
2022-09-22T19:42:04.577Z,10.80
2022-09-22T19:44:32.625Z,10.70
2022-09-22T19:46:59.966Z,10.70
2022-09-22T19:49:27.264Z,10.70
2022-09-22T19:51:54.538Z,10.60
2022-09-22T19:54:21.777Z,10.50
2022-09-22T19:56:52.735Z,10.50
2022-09-22T19:59:20.152Z,10.40
2022-09-22T20:01:48.549Z,10.40
2022-09-22T20:04:21.298Z,10.40
2022-09-22T20:06:49.061Z,10.30
2022-09-22T20:09:17.248Z,10.20
2022-09-22T20:11:47.617Z,10.10
2022-09-22T20:14:22.708Z,10.10
2022-09-22T20:17:02.862Z,10.10
2022-09-22T20:19:32.937Z,10.00
2022-09-22T20:22:17.681Z,9.90
2022-09-22T20:24:54.143Z,9.90
2022-09-22T20:27:29.788Z,9.90
2022-09-22T20:29:57.867Z,9.80
2022-09-22T20:32:26.890Z,9.80
2022-09-22T20:34:58.102Z,9.80
2022-09-22T20:37:26.644Z,9.80
2022-09-22T20:39:53.800Z,9.70
2022-09-22T20:42:21.068Z,9.60
2022-09-22T20:44:49.256Z,9.60
2022-09-22T20:47:19.745Z,9.60
2022-09-22T20:49:51.591Z,9.50
2022-09-22T20:52:22.801Z,9.50
2022-09-22T20:54:50.144Z,9.50
2022-09-22T20:57:17.723Z,9.40
2022-09-22T20:59:46.102Z,9.40
2022-09-22T21:02:15.040Z,9.40
2022-09-22T21:04:42.602Z,9.30
2022-09-22T21:07:11.562Z,9.30
2022-09-22T21:09:57.743Z,9.20
2022-09-22T21:12:30.682Z,9.20
2022-09-22T21:14:59.039Z,9.10
2022-09-22T21:17:31.259Z,9.10
2022-09-22T21:19:58.682Z,9.10
2022-09-22T21:22:28.612Z,9.10
2022-09-22T21:24:56.783Z,9.00
2022-09-22T21:27:25.245Z,9.00
2022-09-22T21:29:53.296Z,8.90
2022-09-22T21:32:20.872Z,8.80
2022-09-22T21:34:48.248Z,8.90
2022-09-22T21:37:15.665Z,8.80
2022-09-22T21:39:43.894Z,8.80
2022-09-22T21:42:11.107Z,8.70
2022-09-22T21:44:39.260Z,8.70
2022-09-22T21:47:06.586Z,8.60
2022-09-22T21:49:33.820Z,8.60
2022-09-22T21:52:01.466Z,8.50
2022-09-22T21:54:28.759Z,8.50
2022-09-22T21:56:56.801Z,8.50
2022-09-22T21:59:23.993Z,8.40
2022-09-22T22:01:51.360Z,8.40
2022-09-22T22:04:18.958Z,8.30
2022-09-22T22:06:46.737Z,8.30
2022-09-22T22:09:15.636Z,8.30
2022-09-22T22:11:53.464Z,8.30
2022-09-22T22:14:22.409Z,8.20
2022-09-22T22:16:51.880Z,8.20
2022-09-22T22:19:22.055Z,8.20
2022-09-22T22:21:51.259Z,8.20
2022-09-22T22:24:41.033Z,8.20
2022-09-22T22:27:10.799Z,8.20
2022-09-22T22:29:39.104Z,8.10
2022-09-22T22:32:08.221Z,8.10
2022-09-22T22:34:35.623Z,8.10
2022-09-22T22:37:04.747Z,8.00
2022-09-22T22:39:32.709Z,8.00
2022-09-22T22:42:00.124Z,8.00
2022-09-22T22:44:27.403Z,8.00
2022-09-22T22:46:54.998Z,8.00
2022-09-22T22:49:22.972Z,7.90
2022-09-22T22:51:52.443Z,7.90
2022-09-22T22:54:19.682Z,7.80
2022-09-22T22:56:50.983Z,7.80
2022-09-22T22:59:19.738Z,7.80
2022-09-22T23:01:47.176Z,7.80
2022-09-22T23:04:16.843Z,7.70
2022-09-22T23:06:44.559Z,7.70
2022-09-22T23:09:15.249Z,7.70
2022-09-22T23:11:43.641Z,7.70
2022-09-22T23:14:12.962Z,7.60
2022-09-22T23:16:45.846Z,7.60
2022-09-22T23:19:16.207Z,7.60
2022-09-22T23:21:45.114Z,7.60
2022-09-22T23:24:17.204Z,7.60
2022-09-22T23:26:44.991Z,7.50
2022-09-22T23:29:12.506Z,7.50
2022-09-22T23:31:39.865Z,7.40
2022-09-22T23:34:07.076Z,7.40
2022-09-22T23:36:34.714Z,7.40
2022-09-22T23:39:04.157Z,7.40
2022-09-22T23:41:33.639Z,7.30
2022-09-22T23:44:01.003Z,7.40
2022-09-22T23:46:28.508Z,7.30
2022-09-22T23:48:55.899Z,7.30
2022-09-22T23:51:24.260Z,7.30
2022-09-22T23:53:51.943Z,7.30
2022-09-22T23:56:19.742Z,7.30
2022-09-22T23:58:47.126Z,7.30
